sensor_id;sensor_type;location;lat;lon;timestamp;P1;durP1;ratioP1;P2;durP2;ratioP2
52878;SDS011;38747;53.140;6.498;2024-01-30T00:01:51;18.40;;;10.77;;
52878;SDS011;38747;53.140;6.498;2024-01-30T00:04:17;18.10;;;10.52;;
52878;SDS011;38747;53.140;6.498;2024-01-30T00:06:43;18.53;;;10.93;;
52878;SDS011;38747;53.140;6.498;2024-01-30T00:09:12;20.27;;;11.65;;
52878;SDS011;38747;53.140;6.498;2024-01-30T00:11:38;18.25;;;10.82;;
52878;SDS011;38747;53.140;6.498;2024-01-30T00:14:04;18.23;;;10.33;;
52878;SDS011;38747;53.140;6.498;2024-01-30T00:16:30;19.40;;;10.98;;
52878;SDS011;38747;53.140;6.498;2024-01-30T00:18:56;21.27;;;11.13;;
52878;SDS011;38747;53.140;6.498;2024-01-30T00:21:21;19.03;;;11.10;;
52878;SDS011;38747;53.140;6.498;2024-01-30T00:23:48;20.55;;;11.30;;
52878;SDS011;38747;53.140;6.498;2024-01-30T00:26:15;22.35;;;11.90;;
52878;SDS011;38747;53.140;6.498;2024-01-30T00:28:40;19.60;;;10.33;;
52878;SDS011;38747;53.140;6.498;2024-01-30T00:31:06;20.55;;;10.48;;
52878;SDS011;38747;53.140;6.498;2024-01-30T00:33:35;19.60;;;11.90;;
52878;SDS011;38747;53.140;6.498;2024-01-30T00:36:01;19.93;;;11.47;;
52878;SDS011;38747;53.140;6.498;2024-01-30T00:38:28;19.38;;;11.18;;
52878;SDS011;38747;53.140;6.498;2024-01-30T00:40:54;20.13;;;10.80;;
52878;SDS011;38747;53.140;6.498;2024-01-30T00:43:19;20.77;;;11.17;;
52878;SDS011;38747;53.140;6.498;2024-01-30T00:45:46;20.95;;;11.23;;
52878;SDS011;38747;53.140;6.498;2024-01-30T00:48:11;20.23;;;11.15;;
52878;SDS011;38747;53.140;6.498;2024-01-30T00:50:37;21.53;;;11.73;;
52878;SDS011;38747;53.140;6.498;2024-01-30T00:53:03;20.80;;;11.50;;
52878;SDS011;38747;53.140;6.498;2024-01-30T00:55:28;20.33;;;11.00;;
52878;SDS011;38747;53.140;6.498;2024-01-30T00:57:57;22.33;;;11.40;;
52878;SDS011;38747;53.140;6.498;2024-01-30T01:00:22;18.93;;;10.57;;
52878;SDS011;38747;53.140;6.498;2024-01-30T01:02:53;22.23;;;11.02;;
52878;SDS011;38747;53.140;6.498;2024-01-30T01:05:22;20.45;;;11.07;;
52878;SDS011;38747;53.140;6.498;2024-01-30T01:07:47;21.60;;;11.30;;
52878;SDS011;38747;53.140;6.498;2024-01-30T01:10:13;21.00;;;11.32;;
52878;SDS011;38747;53.140;6.498;2024-01-30T01:12:41;20.05;;;10.93;;
52878;SDS011;38747;53.140;6.498;2024-01-30T01:15:07;19.73;;;11.07;;
52878;SDS011;38747;53.140;6.498;2024-01-30T01:17:35;22.67;;;11.38;;
52878;SDS011;38747;53.140;6.498;2024-01-30T01:20:04;23.50;;;11.43;;
52878;SDS011;38747;53.140;6.498;2024-01-30T01:22:31;21.67;;;11.25;;
52878;SDS011;38747;53.140;6.498;2024-01-30T01:24:57;20.95;;;11.30;;
52878;SDS011;38747;53.140;6.498;2024-01-30T01:27:23;20.83;;;11.10;;
52878;SDS011;38747;53.140;6.498;2024-01-30T01:29:51;23.60;;;12.32;;
52878;SDS011;38747;53.140;6.498;2024-01-30T01:32:17;23.13;;;11.98;;
52878;SDS011;38747;53.140;6.498;2024-01-30T01:34:43;23.08;;;11.23;;
52878;SDS011;38747;53.140;6.498;2024-01-30T01:37:08;22.70;;;11.57;;
52878;SDS011;38747;53.140;6.498;2024-01-30T01:39:34;21.58;;;11.57;;
52878;SDS011;38747;53.140;6.498;2024-01-30T01:42:00;21.50;;;11.37;;
52878;SDS011;38747;53.140;6.498;2024-01-30T01:44:26;23.50;;;12.13;;
52878;SDS011;38747;53.140;6.498;2024-01-30T01:46:52;22.10;;;12.20;;
52878;SDS011;38747;53.140;6.498;2024-01-30T01:49:19;20.17;;;11.30;;
52878;SDS011;38747;53.140;6.498;2024-01-30T01:51:47;20.23;;;11.43;;
52878;SDS011;38747;53.140;6.498;2024-01-30T01:54:14;20.38;;;11.77;;
52878;SDS011;38747;53.140;6.498;2024-01-30T01:56:41;20.27;;;11.25;;
52878;SDS011;38747;53.140;6.498;2024-01-30T01:59:08;21.87;;;11.37;;
52878;SDS011;38747;53.140;6.498;2024-01-30T02:01:37;20.52;;;10.88;;
52878;SDS011;38747;53.140;6.498;2024-01-30T02:04:04;23.75;;;12.23;;
52878;SDS011;38747;53.140;6.498;2024-01-30T02:06:30;20.70;;;11.57;;
52878;SDS011;38747;53.140;6.498;2024-01-30T02:08:57;21.27;;;11.67;;
52878;SDS011;38747;53.140;6.498;2024-01-30T02:11:22;21.27;;;11.25;;
52878;SDS011;38747;53.140;6.498;2024-01-30T02:13:49;21.95;;;11.32;;
52878;SDS011;38747;53.140;6.498;2024-01-30T02:16:15;21.77;;;11.50;;
52878;SDS011;38747;53.140;6.498;2024-01-30T02:18:42;20.20;;;11.20;;
52878;SDS011;38747;53.140;6.498;2024-01-30T02:21:10;25.77;;;12.10;;
52878;SDS011;38747;53.140;6.498;2024-01-30T02:23:36;20.67;;;11.80;;
52878;SDS011;38747;53.140;6.498;2024-01-30T02:26:02;23.77;;;11.63;;
52878;SDS011;38747;53.140;6.498;2024-01-30T02:28:28;21.95;;;11.40;;
52878;SDS011;38747;53.140;6.498;2024-01-30T02:30:54;24.57;;;11.23;;
52878;SDS011;38747;53.140;6.498;2024-01-30T02:33:19;19.05;;;10.95;;
52878;SDS011;38747;53.140;6.498;2024-01-30T02:35:47;21.20;;;11.82;;
52878;SDS011;38747;53.140;6.498;2024-01-30T02:38:12;22.47;;;10.77;;
52878;SDS011;38747;53.140;6.498;2024-01-30T02:40:38;21.30;;;11.07;;
52878;SDS011;38747;53.140;6.498;2024-01-30T02:43:04;22.70;;;10.73;;
52878;SDS011;38747;53.140;6.498;2024-01-30T02:45:30;21.20;;;11.57;;
52878;SDS011;38747;53.140;6.498;2024-01-30T02:47:56;19.93;;;11.23;;
52878;SDS011;38747;53.140;6.498;2024-01-30T02:50:21;22.50;;;11.43;;
52878;SDS011;38747;53.140;6.498;2024-01-30T02:52:47;20.73;;;11.13;;
52878;SDS011;38747;53.140;6.498;2024-01-30T02:55:12;22.42;;;11.25;;
52878;SDS011;38747;53.140;6.498;2024-01-30T02:57:38;23.23;;;11.57;;
52878;SDS011;38747;53.140;6.498;2024-01-30T03:00:04;23.60;;;11.57;;
52878;SDS011;38747;53.140;6.498;2024-01-30T03:02:31;22.80;;;11.27;;
52878;SDS011;38747;53.140;6.498;2024-01-30T03:04:58;18.90;;;10.77;;
52878;SDS011;38747;53.140;6.498;2024-01-30T03:07:24;20.83;;;11.80;;
52878;SDS011;38747;53.140;6.498;2024-01-30T03:09:50;23.92;;;11.52;;
52878;SDS011;38747;53.140;6.498;2024-01-30T03:12:15;20.20;;;11.03;;
52878;SDS011;38747;53.140;6.498;2024-01-30T03:14:41;21.60;;;11.95;;
52878;SDS011;38747;53.140;6.498;2024-01-30T03:17:07;20.00;;;10.83;;
52878;SDS011;38747;53.140;6.498;2024-01-30T03:19:32;21.63;;;11.02;;
52878;SDS011;38747;53.140;6.498;2024-01-30T03:21:58;19.97;;;10.67;;
52878;SDS011;38747;53.140;6.498;2024-01-30T03:24:24;21.33;;;11.13;;
52878;SDS011;38747;53.140;6.498;2024-01-30T03:26:49;22.70;;;11.20;;
52878;SDS011;38747;53.140;6.498;2024-01-30T03:29:15;22.85;;;11.63;;
52878;SDS011;38747;53.140;6.498;2024-01-30T03:31:42;20.10;;;10.57;;
52878;SDS011;38747;53.140;6.498;2024-01-30T03:34:07;20.60;;;10.90;;
52878;SDS011;38747;53.140;6.498;2024-01-30T03:36:33;19.23;;;10.27;;
52878;SDS011;38747;53.140;6.498;2024-01-30T03:38:59;19.93;;;10.27;;
52878;SDS011;38747;53.140;6.498;2024-01-30T03:41:25;18.60;;;10.57;;
52878;SDS011;38747;53.140;6.498;2024-01-30T03:43:51;21.35;;;10.95;;
52878;SDS011;38747;53.140;6.498;2024-01-30T03:46:20;21.83;;;10.60;;
52878;SDS011;38747;53.140;6.498;2024-01-30T03:48:48;22.83;;;11.27;;
52878;SDS011;38747;53.140;6.498;2024-01-30T03:51:14;18.48;;;10.30;;
52878;SDS011;38747;53.140;6.498;2024-01-30T03:53:41;20.23;;;11.00;;
52878;SDS011;38747;53.140;6.498;2024-01-30T03:56:07;18.83;;;10.23;;
52878;SDS011;38747;53.140;6.498;2024-01-30T03:58:33;19.60;;;10.55;;
52878;SDS011;38747;53.140;6.498;2024-01-30T04:00:59;18.45;;;10.30;;
52878;SDS011;38747;53.140;6.498;2024-01-30T04:03:24;18.60;;;10.17;;
52878;SDS011;38747;53.140;6.498;2024-01-30T04:05:53;22.23;;;10.27;;
52878;SDS011;38747;53.140;6.498;2024-01-30T04:08:19;21.20;;;10.85;;
52878;SDS011;38747;53.140;6.498;2024-01-30T04:10:45;17.40;;;9.60;;
52878;SDS011;38747;53.140;6.498;2024-01-30T04:13:11;21.73;;;10.65;;
52878;SDS011;38747;53.140;6.498;2024-01-30T04:15:37;20.17;;;10.50;;
52878;SDS011;38747;53.140;6.498;2024-01-30T04:18:03;21.30;;;10.70;;
52878;SDS011;38747;53.140;6.498;2024-01-30T04:20:29;19.40;;;11.10;;
52878;SDS011;38747;53.140;6.498;2024-01-30T04:22:54;17.70;;;9.52;;
52878;SDS011;38747;53.140;6.498;2024-01-30T04:25:20;19.25;;;10.55;;
52878;SDS011;38747;53.140;6.498;2024-01-30T04:27:46;20.30;;;10.07;;
52878;SDS011;38747;53.140;6.498;2024-01-30T04:30:11;19.43;;;9.67;;
52878;SDS011;38747;53.140;6.498;2024-01-30T04:32:37;19.80;;;10.02;;
52878;SDS011;38747;53.140;6.498;2024-01-30T04:35:03;18.50;;;9.90;;
52878;SDS011;38747;53.140;6.498;2024-01-30T04:37:29;20.58;;;10.55;;
52878;SDS011;38747;53.140;6.498;2024-01-30T04:39:54;17.23;;;9.60;;
52878;SDS011;38747;53.140;6.498;2024-01-30T04:42:20;19.08;;;9.70;;
52878;SDS011;38747;53.140;6.498;2024-01-30T04:44:46;17.80;;;9.60;;
52878;SDS011;38747;53.140;6.498;2024-01-30T04:47:11;17.80;;;9.38;;
52878;SDS011;38747;53.140;6.498;2024-01-30T04:49:40;16.83;;;9.23;;
52878;SDS011;38747;53.140;6.498;2024-01-30T04:52:06;18.13;;;9.82;;
52878;SDS011;38747;53.140;6.498;2024-01-30T04:54:33;20.15;;;10.15;;
52878;SDS011;38747;53.140;6.498;2024-01-30T04:56:59;18.90;;;10.05;;
52878;SDS011;38747;53.140;6.498;2024-01-30T04:59:25;18.57;;;9.87;;
52878;SDS011;38747;53.140;6.498;2024-01-30T05:01:51;17.90;;;9.27;;
52878;SDS011;38747;53.140;6.498;2024-01-30T05:04:16;19.77;;;9.63;;
52878;SDS011;38747;53.140;6.498;2024-01-30T05:06:42;16.92;;;9.55;;
52878;SDS011;38747;53.140;6.498;2024-01-30T05:09:08;16.80;;;9.47;;
52878;SDS011;38747;53.140;6.498;2024-01-30T05:11:37;18.85;;;9.35;;
52878;SDS011;38747;53.140;6.498;2024-01-30T05:14:04;19.63;;;9.18;;
52878;SDS011;38747;53.140;6.498;2024-01-30T05:16:30;18.20;;;9.50;;
52878;SDS011;38747;53.140;6.498;2024-01-30T05:18:56;15.50;;;8.70;;
52878;SDS011;38747;53.140;6.498;2024-01-30T05:21:22;16.73;;;8.93;;
52878;SDS011;38747;53.140;6.498;2024-01-30T05:23:47;18.57;;;8.67;;
52878;SDS011;38747;53.140;6.498;2024-01-30T05:26:13;17.93;;;9.53;;
52878;SDS011;38747;53.140;6.498;2024-01-30T05:28:38;17.58;;;8.90;;
52878;SDS011;38747;53.140;6.498;2024-01-30T05:31:04;19.13;;;9.23;;
52878;SDS011;38747;53.140;6.498;2024-01-30T05:33:29;16.92;;;8.88;;
52878;SDS011;38747;53.140;6.498;2024-01-30T05:35:55;17.20;;;8.80;;
52878;SDS011;38747;53.140;6.498;2024-01-30T05:38:21;14.70;;;8.50;;
52878;SDS011;38747;53.140;6.498;2024-01-30T05:40:46;16.00;;;8.55;;
52878;SDS011;38747;53.140;6.498;2024-01-30T05:43:12;16.27;;;9.10;;
52878;SDS011;38747;53.140;6.498;2024-01-30T05:45:38;16.77;;;9.18;;
52878;SDS011;38747;53.140;6.498;2024-01-30T05:48:04;16.97;;;9.27;;
52878;SDS011;38747;53.140;6.498;2024-01-30T05:50:30;19.83;;;9.05;;
52878;SDS011;38747;53.140;6.498;2024-01-30T05:52:55;17.37;;;8.97;;
52878;SDS011;38747;53.140;6.498;2024-01-30T05:55:24;16.37;;;8.77;;
52878;SDS011;38747;53.140;6.498;2024-01-30T05:57:50;16.48;;;8.50;;
52878;SDS011;38747;53.140;6.498;2024-01-30T06:00:17;16.13;;;8.43;;
52878;SDS011;38747;53.140;6.498;2024-01-30T06:02:43;14.60;;;8.87;;
52878;SDS011;38747;53.140;6.498;2024-01-30T06:05:08;15.55;;;8.82;;
52878;SDS011;38747;53.140;6.498;2024-01-30T06:07:34;16.30;;;8.67;;
52878;SDS011;38747;53.140;6.498;2024-01-30T06:10:00;16.85;;;9.00;;
52878;SDS011;38747;53.140;6.498;2024-01-30T06:12:27;14.93;;;9.03;;
52878;SDS011;38747;53.140;6.498;2024-01-30T06:14:53;17.15;;;9.80;;
52878;SDS011;38747;53.140;6.498;2024-01-30T06:17:21;15.35;;;8.77;;
52878;SDS011;38747;53.140;6.498;2024-01-30T06:19:47;17.23;;;9.30;;
52878;SDS011;38747;53.140;6.498;2024-01-30T06:22:13;16.07;;;9.03;;
52878;SDS011;38747;53.140;6.498;2024-01-30T06:24:38;18.90;;;8.70;;
52878;SDS011;38747;53.140;6.498;2024-01-30T06:27:04;16.80;;;8.63;;
52878;SDS011;38747;53.140;6.498;2024-01-30T06:29:30;15.13;;;8.77;;
52878;SDS011;38747;53.140;6.498;2024-01-30T06:31:55;17.13;;;8.73;;
52878;SDS011;38747;53.140;6.498;2024-01-30T06:34:22;15.60;;;8.30;;
52878;SDS011;38747;53.140;6.498;2024-01-30T06:36:47;16.13;;;8.10;;
52878;SDS011;38747;53.140;6.498;2024-01-30T06:39:13;14.83;;;8.50;;
52878;SDS011;38747;53.140;6.498;2024-01-30T06:41:38;16.05;;;8.63;;
52878;SDS011;38747;53.140;6.498;2024-01-30T06:44:04;14.57;;;8.10;;
52878;SDS011;38747;53.140;6.498;2024-01-30T06:46:31;16.13;;;8.52;;
52878;SDS011;38747;53.140;6.498;2024-01-30T06:48:57;15.63;;;7.85;;
52878;SDS011;38747;53.140;6.498;2024-01-30T06:51:23;17.50;;;8.80;;
52878;SDS011;38747;53.140;6.498;2024-01-30T06:53:48;15.13;;;8.57;;
52878;SDS011;38747;53.140;6.498;2024-01-30T06:56:14;16.33;;;7.93;;
52878;SDS011;38747;53.140;6.498;2024-01-30T06:58:40;18.80;;;8.27;;
52878;SDS011;38747;53.140;6.498;2024-01-30T07:01:06;16.27;;;8.00;;
52878;SDS011;38747;53.140;6.498;2024-01-30T07:03:31;17.33;;;9.43;;
52878;SDS011;38747;53.140;6.498;2024-01-30T07:05:57;15.53;;;8.47;;
52878;SDS011;38747;53.140;6.498;2024-01-30T07:08:22;16.02;;;8.27;;
52878;SDS011;38747;53.140;6.498;2024-01-30T07:10:48;16.53;;;8.87;;
52878;SDS011;38747;53.140;6.498;2024-01-30T07:13:14;16.13;;;8.40;;
52878;SDS011;38747;53.140;6.498;2024-01-30T07:15:41;16.73;;;9.10;;
52878;SDS011;38747;53.140;6.498;2024-01-30T07:18:07;17.95;;;7.72;;
52878;SDS011;38747;53.140;6.498;2024-01-30T07:20:34;15.30;;;8.38;;
52878;SDS011;38747;53.140;6.498;2024-01-30T07:23:00;14.07;;;8.10;;
52878;SDS011;38747;53.140;6.498;2024-01-30T07:25:26;15.10;;;8.32;;
52878;SDS011;38747;53.140;6.498;2024-01-30T07:27:55;13.70;;;7.77;;
52878;SDS011;38747;53.140;6.498;2024-01-30T07:30:21;14.93;;;8.07;;
52878;SDS011;38747;53.140;6.498;2024-01-30T07:32:48;18.13;;;7.82;;
52878;SDS011;38747;53.140;6.498;2024-01-30T07:35:14;14.43;;;7.80;;
52878;SDS011;38747;53.140;6.498;2024-01-30T07:37:40;15.63;;;8.13;;
52878;SDS011;38747;53.140;6.498;2024-01-30T07:40:05;15.90;;;8.60;;
52878;SDS011;38747;53.140;6.498;2024-01-30T07:42:32;17.63;;;8.63;;
52878;SDS011;38747;53.140;6.498;2024-01-30T07:44:58;16.47;;;8.90;;
52878;SDS011;38747;53.140;6.498;2024-01-30T07:47:25;16.30;;;8.02;;
52878;SDS011;38747;53.140;6.498;2024-01-30T07:49:50;15.60;;;7.93;;
52878;SDS011;38747;53.140;6.498;2024-01-30T07:52:16;16.27;;;8.13;;
52878;SDS011;38747;53.140;6.498;2024-01-30T07:54:48;14.07;;;8.05;;
52878;SDS011;38747;53.140;6.498;2024-01-30T07:57:15;16.60;;;8.07;;
52878;SDS011;38747;53.140;6.498;2024-01-30T07:59:42;15.93;;;7.82;;
52878;SDS011;38747;53.140;6.498;2024-01-30T08:02:09;17.52;;;8.82;;
52878;SDS011;38747;53.140;6.498;2024-01-30T08:04:35;16.70;;;8.30;;
52878;SDS011;38747;53.140;6.498;2024-01-30T08:07:01;15.93;;;8.03;;
52878;SDS011;38747;53.140;6.498;2024-01-30T08:09:26;16.73;;;7.50;;
52878;SDS011;38747;53.140;6.498;2024-01-30T08:11:52;15.50;;;7.63;;
52878;SDS011;38747;53.140;6.498;2024-01-30T08:14:18;14.18;;;8.07;;
52878;SDS011;38747;53.140;6.498;2024-01-30T08:16:43;17.10;;;8.47;;
52878;SDS011;38747;53.140;6.498;2024-01-30T08:19:09;14.18;;;7.63;;
52878;SDS011;38747;53.140;6.498;2024-01-30T08:21:35;14.30;;;7.80;;
52878;SDS011;38747;53.140;6.498;2024-01-30T08:24:04;15.93;;;7.78;;
52878;SDS011;38747;53.140;6.498;2024-01-30T08:26:31;16.98;;;8.10;;
52878;SDS011;38747;53.140;6.498;2024-01-30T08:28:57;15.60;;;7.65;;
52878;SDS011;38747;53.140;6.498;2024-01-30T08:31:23;15.00;;;7.90;;
52878;SDS011;38747;53.140;6.498;2024-01-30T08:33:48;14.60;;;7.70;;
52878;SDS011;38747;53.140;6.498;2024-01-30T08:36:15;15.67;;;7.43;;
52878;SDS011;38747;53.140;6.498;2024-01-30T08:38:41;14.50;;;7.78;;
52878;SDS011;38747;53.140;6.498;2024-01-30T08:41:07;13.50;;;7.43;;
52878;SDS011;38747;53.140;6.498;2024-01-30T08:43:33;15.03;;;7.87;;
52878;SDS011;38747;53.140;6.498;2024-01-30T08:45:59;13.82;;;7.55;;
52878;SDS011;38747;53.140;6.498;2024-01-30T08:48:25;17.35;;;8.05;;
52878;SDS011;38747;53.140;6.498;2024-01-30T08:50:51;14.27;;;7.57;;
52878;SDS011;38747;53.140;6.498;2024-01-30T08:53:17;14.27;;;7.57;;
52878;SDS011;38747;53.140;6.498;2024-01-30T08:55:43;15.20;;;7.32;;
52878;SDS011;38747;53.140;6.498;2024-01-30T08:58:09;16.27;;;7.60;;
52878;SDS011;38747;53.140;6.498;2024-01-30T09:00:34;15.00;;;7.53;;
52878;SDS011;38747;53.140;6.498;2024-01-30T09:03:00;14.93;;;7.10;;
52878;SDS011;38747;53.140;6.498;2024-01-30T09:05:25;14.73;;;7.53;;
52878;SDS011;38747;53.140;6.498;2024-01-30T09:07:51;11.73;;;7.03;;
52878;SDS011;38747;53.140;6.498;2024-01-30T09:10:17;14.93;;;7.23;;
52878;SDS011;38747;53.140;6.498;2024-01-30T09:12:42;13.13;;;7.38;;
52878;SDS011;38747;53.140;6.498;2024-01-30T09:15:08;15.43;;;7.43;;
52878;SDS011;38747;53.140;6.498;2024-01-30T09:17:34;14.88;;;7.40;;
52878;SDS011;38747;53.140;6.498;2024-01-30T09:19:59;14.83;;;7.17;;
52878;SDS011;38747;53.140;6.498;2024-01-30T09:22:25;13.40;;;7.55;;
52878;SDS011;38747;53.140;6.498;2024-01-30T09:24:51;14.43;;;7.17;;
52878;SDS011;38747;53.140;6.498;2024-01-30T09:27:16;15.77;;;7.65;;
52878;SDS011;38747;53.140;6.498;2024-01-30T09:29:42;14.53;;;7.33;;
52878;SDS011;38747;53.140;6.498;2024-01-30T09:32:08;13.50;;;7.07;;
52878;SDS011;38747;53.140;6.498;2024-01-30T09:34:34;15.27;;;7.10;;
52878;SDS011;38747;53.140;6.498;2024-01-30T09:36:59;17.67;;;7.10;;
52878;SDS011;38747;53.140;6.498;2024-01-30T09:39:25;15.57;;;7.20;;
52878;SDS011;38747;53.140;6.498;2024-01-30T09:42:02;14.50;;;6.87;;
52878;SDS011;38747;53.140;6.498;2024-01-30T09:44:51;14.27;;;6.50;;
52878;SDS011;38747;53.140;6.498;2024-01-30T09:47:18;14.95;;;7.07;;
52878;SDS011;38747;53.140;6.498;2024-01-30T09:49:44;12.83;;;6.80;;
52878;SDS011;38747;53.140;6.498;2024-01-30T09:52:09;14.68;;;7.00;;
52878;SDS011;38747;53.140;6.498;2024-01-30T09:54:36;14.88;;;6.72;;
52878;SDS011;38747;53.140;6.498;2024-01-30T09:57:03;17.98;;;7.35;;
52878;SDS011;38747;53.140;6.498;2024-01-30T09:59:29;14.50;;;7.20;;
52878;SDS011;38747;53.140;6.498;2024-01-30T10:01:55;11.83;;;6.40;;
52878;SDS011;38747;53.140;6.498;2024-01-30T10:04:22;13.80;;;6.75;;
52878;SDS011;38747;53.140;6.498;2024-01-30T10:06:47;13.07;;;6.80;;
52878;SDS011;38747;53.140;6.498;2024-01-30T10:09:13;15.82;;;7.20;;
52878;SDS011;38747;53.140;6.498;2024-01-30T10:11:39;14.60;;;7.05;;
52878;SDS011;38747;53.140;6.498;2024-01-30T10:14:05;14.93;;;7.27;;
52878;SDS011;38747;53.140;6.498;2024-01-30T10:16:30;17.13;;;7.25;;
52878;SDS011;38747;53.140;6.498;2024-01-30T10:18:56;17.30;;;6.90;;
52878;SDS011;38747;53.140;6.498;2024-01-30T10:21:21;14.68;;;6.80;;
52878;SDS011;38747;53.140;6.498;2024-01-30T10:23:47;15.63;;;7.27;;
52878;SDS011;38747;53.140;6.498;2024-01-30T10:26:15;13.30;;;6.50;;
52878;SDS011;38747;53.140;6.498;2024-01-30T10:28:42;14.13;;;6.13;;
52878;SDS011;38747;53.140;6.498;2024-01-30T10:31:08;14.63;;;7.00;;
52878;SDS011;38747;53.140;6.498;2024-01-30T10:33:33;14.25;;;6.30;;
52878;SDS011;38747;53.140;6.498;2024-01-30T10:36:00;14.95;;;6.65;;
52878;SDS011;38747;53.140;6.498;2024-01-30T10:38:30;13.45;;;6.47;;
52878;SDS011;38747;53.140;6.498;2024-01-30T10:40:58;14.17;;;6.20;;
52878;SDS011;38747;53.140;6.498;2024-01-30T10:43:36;12.98;;;6.30;;
52878;SDS011;38747;53.140;6.498;2024-01-30T10:46:10;12.82;;;6.43;;
52878;SDS011;38747;53.140;6.498;2024-01-30T10:48:43;15.73;;;6.80;;
52878;SDS011;38747;53.140;6.498;2024-01-30T10:51:12;12.93;;;6.72;;
52878;SDS011;38747;53.140;6.498;2024-01-30T10:53:39;14.83;;;6.37;;
52878;SDS011;38747;53.140;6.498;2024-01-30T10:56:05;18.33;;;6.38;;
52878;SDS011;38747;53.140;6.498;2024-01-30T10:58:31;13.73;;;6.43;;
52878;SDS011;38747;53.140;6.498;2024-01-30T11:00:57;15.27;;;7.07;;
52878;SDS011;38747;53.140;6.498;2024-01-30T11:03:24;13.50;;;7.18;;
52878;SDS011;38747;53.140;6.498;2024-01-30T11:05:50;16.45;;;6.82;;
52878;SDS011;38747;53.140;6.498;2024-01-30T11:08:22;15.90;;;6.85;;
52878;SDS011;38747;53.140;6.498;2024-01-30T11:10:56;15.60;;;6.88;;
52878;SDS011;38747;53.140;6.498;2024-01-30T11:13:26;14.57;;;6.80;;
52878;SDS011;38747;53.140;6.498;2024-01-30T11:15:53;16.65;;;7.03;;
52878;SDS011;38747;53.140;6.498;2024-01-30T11:18:26;14.30;;;7.22;;
52878;SDS011;38747;53.140;6.498;2024-01-30T11:20:55;13.77;;;7.10;;
52878;SDS011;38747;53.140;6.498;2024-01-30T11:23:22;15.13;;;6.25;;
52878;SDS011;38747;53.140;6.498;2024-01-30T11:25:48;14.52;;;6.50;;
52878;SDS011;38747;53.140;6.498;2024-01-30T11:28:14;15.87;;;6.10;;
52878;SDS011;38747;53.140;6.498;2024-01-30T11:30:41;11.98;;;5.38;;
52878;SDS011;38747;53.140;6.498;2024-01-30T11:33:08;12.73;;;4.90;;
52878;SDS011;38747;53.140;6.498;2024-01-30T11:35:41;9.73;;;4.00;;
52878;SDS011;38747;53.140;6.498;2024-01-30T11:38:10;12.73;;;4.50;;
52878;SDS011;38747;53.140;6.498;2024-01-30T11:40:37;15.67;;;4.77;;
52878;SDS011;38747;53.140;6.498;2024-01-30T11:43:04;12.30;;;3.97;;
52878;SDS011;38747;53.140;6.498;2024-01-30T11:45:31;9.52;;;2.70;;
52878;SDS011;38747;53.140;6.498;2024-01-30T11:47:57;8.68;;;2.47;;
52878;SDS011;38747;53.140;6.498;2024-01-30T11:50:25;10.02;;;3.13;;
52878;SDS011;38747;53.140;6.498;2024-01-30T11:52:51;7.97;;;2.13;;
52878;SDS011;38747;53.140;6.498;2024-01-30T11:55:16;9.65;;;2.35;;
52878;SDS011;38747;53.140;6.498;2024-01-30T11:57:43;6.25;;;2.00;;
52878;SDS011;38747;53.140;6.498;2024-01-30T12:00:16;6.77;;;1.60;;
52878;SDS011;38747;53.140;6.498;2024-01-30T12:02:53;5.53;;;1.40;;
52878;SDS011;38747;53.140;6.498;2024-01-30T12:05:22;5.50;;;1.60;;
52878;SDS011;38747;53.140;6.498;2024-01-30T12:07:49;3.93;;;1.27;;
52878;SDS011;38747;53.140;6.498;2024-01-30T12:10:15;5.03;;;1.30;;
52878;SDS011;38747;53.140;6.498;2024-01-30T12:12:46;5.05;;;1.40;;
52878;SDS011;38747;53.140;6.498;2024-01-30T12:15:13;3.65;;;1.00;;
52878;SDS011;38747;53.140;6.498;2024-01-30T12:17:39;4.28;;;1.00;;
52878;SDS011;38747;53.140;6.498;2024-01-30T12:20:09;2.17;;;0.80;;
52878;SDS011;38747;53.140;6.498;2024-01-30T12:22:43;5.75;;;0.90;;
52878;SDS011;38747;53.140;6.498;2024-01-30T12:25:10;4.15;;;0.80;;
52878;SDS011;38747;53.140;6.498;2024-01-30T12:27:38;7.13;;;1.10;;
52878;SDS011;38747;53.140;6.498;2024-01-30T12:30:11;5.40;;;1.00;;
52878;SDS011;38747;53.140;6.498;2024-01-30T12:32:42;4.23;;;0.93;;
52878;SDS011;38747;53.140;6.498;2024-01-30T12:35:12;4.50;;;0.90;;
52878;SDS011;38747;53.140;6.498;2024-01-30T12:37:39;4.40;;;0.98;;
52878;SDS011;38747;53.140;6.498;2024-01-30T12:40:06;4.93;;;1.00;;
52878;SDS011;38747;53.140;6.498;2024-01-30T12:42:33;3.15;;;0.90;;
52878;SDS011;38747;53.140;6.498;2024-01-30T12:44:59;5.27;;;1.00;;
52878;SDS011;38747;53.140;6.498;2024-01-30T12:47:25;2.35;;;0.80;;
52878;SDS011;38747;53.140;6.498;2024-01-30T12:49:51;2.10;;;0.70;;
52878;SDS011;38747;53.140;6.498;2024-01-30T12:52:20;3.83;;;1.07;;
52878;SDS011;38747;53.140;6.498;2024-01-30T12:54:47;3.50;;;0.73;;
52878;SDS011;38747;53.140;6.498;2024-01-30T12:57:16;2.35;;;0.80;;
52878;SDS011;38747;53.140;6.498;2024-01-30T12:59:45;2.67;;;0.85;;
52878;SDS011;38747;53.140;6.498;2024-01-30T13:02:12;2.78;;;0.95;;
52878;SDS011;38747;53.140;6.498;2024-01-30T13:04:38;3.93;;;1.17;;
52878;SDS011;38747;53.140;6.498;2024-01-30T13:07:05;4.75;;;0.90;;
52878;SDS011;38747;53.140;6.498;2024-01-30T13:09:30;3.72;;;0.88;;
52878;SDS011;38747;53.140;6.498;2024-01-30T13:11:57;2.35;;;0.80;;
52878;SDS011;38747;53.140;6.498;2024-01-30T13:14:23;2.53;;;1.00;;
52878;SDS011;38747;53.140;6.498;2024-01-30T13:16:49;2.30;;;0.75;;
52878;SDS011;38747;53.140;6.498;2024-01-30T13:19:15;4.00;;;0.82;;
52878;SDS011;38747;53.140;6.498;2024-01-30T13:21:41;4.15;;;0.90;;
52878;SDS011;38747;53.140;6.498;2024-01-30T13:24:07;3.30;;;1.00;;
52878;SDS011;38747;53.140;6.498;2024-01-30T13:26:33;2.33;;;0.80;;
52878;SDS011;38747;53.140;6.498;2024-01-30T13:28:58;2.40;;;0.80;;
52878;SDS011;38747;53.140;6.498;2024-01-30T13:31:24;2.30;;;0.90;;
52878;SDS011;38747;53.140;6.498;2024-01-30T13:33:50;1.40;;;0.60;;
52878;SDS011;38747;53.140;6.498;2024-01-30T13:36:15;1.90;;;0.70;;
52878;SDS011;38747;53.140;6.498;2024-01-30T13:38:41;2.30;;;0.80;;
52878;SDS011;38747;53.140;6.498;2024-01-30T13:41:07;3.67;;;0.70;;
52878;SDS011;38747;53.140;6.498;2024-01-30T13:43:32;2.60;;;0.60;;
52878;SDS011;38747;53.140;6.498;2024-01-30T13:45:58;2.95;;;0.75;;
52878;SDS011;38747;53.140;6.498;2024-01-30T13:48:24;2.17;;;0.70;;
52878;SDS011;38747;53.140;6.498;2024-01-30T13:50:50;1.40;;;0.60;;
52878;SDS011;38747;53.140;6.498;2024-01-30T13:53:15;2.00;;;0.80;;
52878;SDS011;38747;53.140;6.498;2024-01-30T13:55:41;1.80;;;0.70;;
52878;SDS011;38747;53.140;6.498;2024-01-30T13:58:07;3.10;;;0.70;;
52878;SDS011;38747;53.140;6.498;2024-01-30T14:00:33;3.53;;;0.60;;
52878;SDS011;38747;53.140;6.498;2024-01-30T14:02:59;2.43;;;0.73;;
52878;SDS011;38747;53.140;6.498;2024-01-30T14:05:25;2.88;;;0.60;;
52878;SDS011;38747;53.140;6.498;2024-01-30T14:07:53;1.95;;;0.70;;
52878;SDS011;38747;53.140;6.498;2024-01-30T14:10:19;2.80;;;0.80;;
52878;SDS011;38747;53.140;6.498;2024-01-30T14:12:45;1.70;;;0.73;;
52878;SDS011;38747;53.140;6.498;2024-01-30T14:15:13;1.93;;;0.80;;
52878;SDS011;38747;53.140;6.498;2024-01-30T14:17:40;2.75;;;0.77;;
52878;SDS011;38747;53.140;6.498;2024-01-30T14:20:06;2.45;;;0.70;;
52878;SDS011;38747;53.140;6.498;2024-01-30T14:22:36;3.08;;;0.80;;
52878;SDS011;38747;53.140;6.498;2024-01-30T14:25:02;4.25;;;1.40;;
52878;SDS011;38747;53.140;6.498;2024-01-30T14:27:29;4.50;;;1.40;;
52878;SDS011;38747;53.140;6.498;2024-01-30T14:29:55;5.00;;;1.30;;